Time;durP1;ratioP1;P1;durP2;ratioP2;P2;SDS_P1;SDS_P2;PMS_P1;PMS_P2;Temp;Humidity;BMP_temperature;BMP_pressure;BME280_temperature;BME280_humidity;BME280_pressure;Samples;Min_cycle;Max_cycle;Signal;HPM_P1;HPM_P2
2023/12/08 00:00:03;;;;;;;16.50;8.10;;;;;;;6.65;81.57;101363.81;106403;1256;61864;-82
2023/12/08 00:02:32;;;;;;;11.10;7.10;;;;;;;6.77;80.17;101366.42;106332;1254;60443;-82
2023/12/08 00:05:09;;;;;;;14.20;7.50;;;;;;;6.58;81.11;101367.75;106336;1254;73788;-82
2023/12/08 00:07:44;;;;;;;15.50;8.00;;;;;;;6.70;80.77;101369.66;106480;1256;67112;-82
2023/12/08 00:10:18;;;;;;;16.40;7.60;;;;;;;6.64;80.97;101366.13;106439;1254;71843;-82
2023/12/08 00:12:47;;;;;;;13.70;7.10;;;;;;;6.50;82.13;101366.41;106430;1257;60527;-81
2023/12/08 00:15:23;;;;;;;16.40;7.20;;;;;;;6.47;82.22;101363.13;106485;1256;60440;-81
2023/12/08 00:17:58;;;;;;;14.10;6.70;;;;;;;6.67;80.91;101367.67;106291;1257;73813;-82
2023/12/08 00:20:32;;;;;;;12.00;6.50;;;;;;;6.61;80.76;101363.06;106537;1257;68526;-81
2023/12/08 00:23:01;;;;;;;13.70;7.00;;;;;;;6.35;82.84;101368.80;106523;1259;72751;-82
2023/12/08 00:25:36;;;;;;;15.00;8.00;;;;;;;6.25;84.13;101365.52;106272;1254;60981;-82
2023/12/08 00:28:12;;;;;;;14.90;7.40;;;;;;;6.35;83.55;101368.05;106347;1252;61057;-82
2023/12/08 04:29:32;;;;;;;11.80;6.00;;;;;;;6.44;79.55;101354.29;106243;1254;60405;-82
2023/12/08 04:32:06;;;;;;;11.80;6.10;;;;;;;6.56;78.45;101354.94;106274;1254;72779;-81
2023/12/08 04:34:40;;;;;;;13.00;6.40;;;;;;;6.58;78.43;101353.21;106432;1256;68399;-81
2023/12/08 04:37:08;;;;;;;16.60;7.10;;;;;;;6.35;79.67;101353.34;106513;1254;72677;-81
2023/12/08 04:39:42;;;;;;;15.40;7.70;;;;;;;6.21;81.38;101358.20;106462;1253;60843;-81
2023/12/08 04:42:16;;;;;;;12.70;7.10;;;;;;;6.31;81.09;101355.49;106499;1252;61032;-82
2023/12/08 04:44:49;;;;;;;13.00;6.70;;;;;;;6.32;81.22;101351.09;106307;1253;73892;-82
2023/12/08 04:47:17;;;;;;;13.00;6.70;;;;;;;6.32;81.00;101354.07;106285;1260;68398;-82
2023/12/08 04:49:51;;;;;;;11.50;6.40;;;;;;;6.23;81.51;101361.15;106433;1254;72926;-81
2023/12/08 04:52:25;;;;;;;17.20;7.90;;;;;;;6.20;82.18;101360.48;106330;1254;60447;-81
2023/12/08 04:54:52;;;;;;;14.20;7.50;;;;;;;6.21;82.50;101358.75;106430;1253;60942;-82
2023/12/08 04:57:26;;;;;;;16.50;7.00;;;;;;;6.11;83.13;101356.88;106402;1256;73793;-81
2023/12/08 05:00:02;;;;;;;14.90;6.70;;;;;;;6.21;82.84;101359.42;106497;1254;68653;-82
2023/12/08 05:02:37;;;;;;;14.30;7.20;;;;;;;6.32;81.57;101363.91;106446;1254;72711;-81
2023/12/08 05:05:04;;;;;;;14.60;6.60;;;;;;;6.38;81.19;101360.16;106312;1256;60542;-81
2023/12/08 05:07:38;;;;;;;14.00;7.20;;;;;;;6.25;81.46;101363.10;106465;1254;59244;-81
2023/12/08 05:10:12;;;;;;;14.40;7.20;;;;;;;6.20;82.21;101360.19;106401;1256;73205;-82
2023/12/08 05:12:46;;;;;;;13.10;6.70;;;;;;;6.16;82.53;101359.16;106577;1253;67085;-82
2023/12/08 05:15:15;;;;;;;13.90;7.50;;;;;;;6.07;83.40;101354.63;106432;1254;71762;-80
2023/12/08 05:17:49;;;;;;;12.40;6.40;;;;;;;6.03;83.96;101351.88;106341;1253;61376;-81
2023/12/08 05:20:23;;;;;;;14.00;6.90;;;;;;;6.06;83.82;101355.45;106427;1252;60329;-81
2023/12/08 05:23:00;;;;;;;12.80;6.40;;;;;;;6.03;83.64;101357.81;106384;1254;73447;-81
2023/12/08 05:25:27;;;;;;;13.40;6.60;;;;;;;6.06;83.25;101356.39;106373;1254;68506;-82
2023/12/08 05:28:01;;;;;;;11.30;6.60;;;;;;;5.93;84.35;101359.80;106411;1257;72697;-80
2023/12/08 05:30:35;;;;;;;10.20;6.00;;;;;;;6.12;83.44;101363.76;106312;1254;60509;-80
2023/12/08 05:33:09;;;;;;;11.80;6.60;;;;;;;6.21;82.28;101363.85;106365;1254;59265;-80
2023/12/08 05:35:37;;;;;;;12.60;6.10;;;;;;;6.23;81.86;101364.27;106355;1254;72620;-81
2023/12/08 05:38:11;;;;;;;12.60;6.70;;;;;;;6.31;81.37;101362.39;106421;1253;68701;-81
2023/12/08 05:40:45;;;;;;;12.70;6.80;;;;;;;6.31;80.81;101366.52;106370;1254;72686;-81
2023/12/08 05:43:12;;;;;;;11.90;6.30;;;;;;;5.87;83.84;101366.80;106422;1254;60430;-81
2023/12/08 05:45:46;;;;;;;12.90;6.20;;;;;;;5.69;85.66;101368.53;106355;1257;60402;-81
2023/12/08 05:48:21;;;;;;;10.40;5.80;;;;;;;5.63;86.24;101372.58;106369;1254;71659;-81
2023/12/08 05:50:55;;;;;;;10.40;5.80;;;;;;;5.60;86.70;101376.94;106485;1253;68865;-81
2023/12/08 05:53:23;;;;;;;13.10;6.30;;;;;;;5.65;86.65;101372.96;106336;1254;72432;-81
2023/12/08 05:55:58;;;;;;;11.20;6.20;;;;;;;5.50;87.45;101374.20;106263;1253;59559;-81
2023/12/08 05:58:34;;;;;;;12.50;5.90;;;;;;;5.45;88.37;101372.19;106380;1258;60383;-81
2023/12/08 06:01:07;;;;;;;9.50;5.70;;;;;;;5.56;87.82;101372.42;106457;1252;73832;-81
2023/12/08 06:03:37;;;;;;;11.20;6.00;;;;;;;5.50;88.25;101374.61;106423;1256;67686;-81
2023/12/08 06:06:12;;;;;;;13.10;6.00;;;;;;;5.56;88.06;101377.84;106400;1254;73123;-81
2023/12/08 06:08:48;;;;;;;10.60;5.60;;;;;;;5.66;87.51;101377.34;106345;1253;60936;-82
2023/12/08 06:11:22;;;;;;;8.70;5.00;;;;;;;5.72;86.97;101374.60;106499;1254;60565;-81
2023/12/08 06:13:57;;;;;;;10.60;5.30;;;;;;;5.69;87.05;101377.15;106414;1253;73802;-81
2023/12/08 06:16:32;;;;;;;12.10;6.20;;;;;;;5.56;87.81;101376.98;106459;1257;68567;-80
2023/12/08 06:19:11;;;;;;;9.90;5.30;;;;;;;5.55;88.17;101373.42;106286;1254;71427;-81
2023/12/08 06:21:47;;;;;;;10.80;5.60;;;;;;;5.69;88.05;101372.21;106507;1256;60480;-81
2023/12/08 06:24:22;;;;;;;9.90;5.50;;;;;;;5.76;87.02;101377.33;106435;1254;60887;-81
2023/12/08 06:26:57;;;;;;;10.90;5.40;;;;;;;5.77;87.03;101376.77;106389;1254;73837;-80
2023/12/08 06:29:33;;;;;;;10.70;5.70;;;;;;;5.78;87.40;101376.90;106256;1254;68667;-81
2023/12/08 06:32:08;;;;;;;15.30;6.70;;;;;;;5.84;86.88;101376.48;106374;1253;73210;-81
2023/12/08 06:34:44;;;;;;;10.70;5.80;;;;;;;5.71;88.40;101379.92;106474;1254;60453;-81
2023/12/08 06:37:19;;;;;;;10.80;5.30;;;;;;;5.64;90.48;101381.40;106624;1253;60349;-81
2023/12/08 06:39:54;;;;;;;12.00;5.90;;;;;;;5.74;89.80;101374.97;106352;1256;74194;-81
2023/12/08 06:42:30;;;;;;;10.20;5.40;;;;;;;5.86;89.10;101377.08;106395;1253;68420;-81
2023/12/08 06:45:07;;;;;;;12.60;5.60;;;;;;;5.92;88.41;101371.85;106439;1254;71406;-81
2023/12/08 06:47:43;;;;;;;11.10;6.10;;;;;;;5.98;88.05;101371.59;106475;1254;60501;-81
2023/12/08 06:50:19;;;;;;;15.00;8.30;;;;;;;6.12;85.77;101374.44;106516;1253;60449;-81
2023/12/08 06:52:54;;;;;;;9.90;5.10;;;;;;;6.26;84.41;101370.89;106338;1254;73794;-81
2023/12/08 06:55:30;;;;;;;10.20;5.00;;;;;;;6.23;84.52;101372.09;106190;1254;68694;-81
2023/12/08 06:58:05;;;;;;;18.70;8.00;;;;;;;6.26;84.48;101371.76;106445;1254;73145;-80
2023/12/08 07:00:40;;;;;;;14.80;8.30;;;;;;;6.36;83.73;101378.82;106379;1254;60428;-81
2023/12/08 07:03:15;;;;;;;9.30;5.20;;;;;;;6.55;81.94;101374.89;106392;1253;59564;-81
2023/12/08 07:05:51;;;;;;;10.60;5.40;;;;;;;6.62;81.42;101376.05;106244;1253;73822;-81
2023/12/08 07:08:26;;;;;;;7.40;4.90;;;;;;;6.68;81.33;101379.76;106367;1253;67400;-81
2023/12/08 07:10:56;;;;;;;10.50;5.70;;;;;;;6.69;80.66;101379.63;106328;1254;72727;-81
2023/12/08 07:13:30;;;;;;;11.30;6.20;;;;;;;6.70;80.82;101378.08;106543;1253;60411;-81
2023/12/08 07:16:05;;;;;;;12.70;6.00;;;;;;;6.76;80.55;101373.50;107137;1252;60089;-82
2023/12/08 07:18:39;;;;;;;11.40;5.90;;;;;;;6.76;80.66;101376.27;106779;1253;72570;-82
2023/12/08 07:21:13;;;;;;;9.60;5.10;;;;;;;6.72;80.99;101371.81;106488;1253;66580;-82
2023/12/08 07:23:47;;;;;;;12.20;5.70;;;;;;;6.81;80.16;101367.45;106702;1253;72453;-82
2023/12/08 07:26:21;;;;;;;9.90;5.30;;;;;;;6.85;80.03;101367.61;106640;1256;60812;-82
2023/12/08 07:28:54;;;;;;;9.30;5.40;;;;;;;6.95;78.88;101367.58;106724;1252;61885;-81
2023/12/08 07:31:28;;;;;;;9.00;5.30;;;;;;;6.97;79.10;101364.80;106802;1253;75866;-81
2023/12/08 07:34:21;;;;;;;12.30;5.10;;;;;;;7.00;78.99;101361.85;107160;1252;68424;-81
2023/12/08 07:37:16;;;;;;;9.80;4.80;;;;;;;6.93;78.21;101358.55;106890;1253;72647;-83
2023/12/08 07:40:11;;;;;;;9.50;5.00;;;;;;;7.00;77.88;101352.87;106749;1254;61449;-83
2023/12/08 07:43:07;;;;;;;9.20;4.90;;;;;;;6.90;79.34;101353.52;106738;1253;60457;-82
2023/12/08 07:46:02;;;;;;;9.60;5.20;;;;;;;6.63;82.23;101353.55;106685;1253;73901;-82
2023/12/08 07:48:57;;;;;;;10.10;5.00;;;;;;;6.84;80.68;101353.40;108915;1253;67253;-82
2023/12/08 07:51:52;;;;;;;9.40;4.80;;;;;;;6.77;81.14;101358.65;107474;1255;73334;-83
2023/12/08 07:54:47;;;;;;;11.10;5.00;;;;;;;6.71;81.28;101356.64;106887;1253;60440;-83
2023/12/08 07:57:42;;;;;;;9.60;4.80;;;;;;;6.75;81.10;101355.65;106780;1252;59931;-83
2023/12/08 08:00:16;;;;;;;9.20;4.70;;;;;;;6.89;80.73;101354.01;106798;1256;72640;-82
2023/12/08 08:02:50;;;;;;;7.00;4.20;;;;;;;6.72;82.06;101355.14;106743;1253;68681;-82
2023/12/08 08:05:24;;;;;;;8.30;4.80;;;;;;;6.65;83.15;101351.86;106816;1253;72726;-82
2023/12/08 08:07:58;;;;;;;7.50;4.10;;;;;;;6.76;82.82;101353.41;106481;1256;59710;-82
2023/12/08 08:10:32;;;;;;;9.70;4.80;;;;;;;6.85;81.87;101353.20;106513;1251;60509;-83
2023/12/08 08:13:06;;;;;;;8.60;4.60;;;;;;;6.96;79.96;101355.31;106292;1251;72596;-82
2023/12/08 08:15:40;;;;;;;9.00;4.30;;;;;;;6.82;80.74;101354.45;106428;1251;68358;-82
2023/12/08 08:18:14;;;;;;;10.90;5.20;;;;;;;6.64;81.45;101356.84;106410;1251;72645;-82
2023/12/08 08:20:47;;;;;;;9.70;4.60;;;;;;;6.59;82.05;101350.23;106323;1254;60412;-82
2023/12/08 08:23:21;;;;;;;9.10;4.60;;;;;;;6.64;82.21;101348.39;106395;1256;60435;-83
2023/12/08 08:25:55;;;;;;;8.20;4.40;;;;;;;6.53;82.52;101346.55;106470;1251;74471;-83
2023/12/08 08:28:31;;;;;;;9.90;4.50;;;;;;;6.74;81.53;101342.98;106392;1251;68767;-83
2023/12/08 08:31:04;;;;;;;9.10;4.70;;;;;;;6.68;82.33;101338.02;106458;1252;73133;-82
2023/12/08 08:33:32;;;;;;;9.00;5.00;;;;;;;6.42;84.42;101332.67;106254;1251;60428;-82
2023/12/08 08:36:07;;;;;;;8.10;4.60;;;;;;;6.45;85.40;101332.29;106393;1251;60539;-82
2023/12/08 08:38:41;;;;;;;11.20;5.20;;;;;;;6.60;85.46;101333.26;106498;1251;73857;-83
2023/12/08 08:41:14;;;;;;;8.70;4.60;;;;;;;6.71;85.30;101334.30;106474;1251;68371;-82
2023/12/08 08:43:49;;;;;;;6.80;3.80;;;;;;;6.68;85.84;101339.28;106347;1253;73718;-82
2023/12/08 08:46:23;;;;;;;6.10;4.00;;;;;;;6.68;85.04;101340.05;106438;1251;60937;-82
2023/12/08 08:48:57;;;;;;;6.60;4.10;;;;;;;6.60;85.85;101338.92;106378;1256;60268;-83
2023/12/08 08:51:31;;;;;;;7.50;3.90;;;;;;;6.65;85.40;101338.94;106469;1256;73798;-82
2023/12/08 08:54:12;;;;;;;6.80;4.20;;;;;;;6.69;84.45;101340.39;106473;1253;68520;-82
2023/12/08 08:56:53;;;;;;;7.20;4.10;;;;;;;6.66;84.11;101343.65;106420;1251;71477;-84
2023/12/08 08:59:33;;;;;;;8.10;4.20;;;;;;;6.59;85.36;101348.44;106429;1251;60491;-82
2023/12/08 09:02:12;;;;;;;6.20;4.10;;;;;;;6.53;85.45;101350.13;106471;1251;60506;-82
2023/12/08 09:04:52;;;;;;;6.50;3.90;;;;;;;6.50;85.26;101348.34;106121;1256;324018;-82
2023/12/08 09:07:32;;;;;;;10.00;4.90;;;;;;;6.53;85.04;101344.09;106355;1251;68791;-82
2023/12/08 09:10:13;;;;;;;6.80;4.10;;;;;;;6.53;85.47;101339.04;106454;1252;72253;-82
2023/12/08 09:12:53;;;;;;;7.80;4.60;;;;;;;6.64;84.88;101337.40;106420;1254;60428;-82
2023/12/08 09:15:32;;;;;;;9.40;4.90;;;;;;;6.73;84.16;101338.54;106390;1251;60399;-82
2023/12/08 09:18:06;;;;;;;6.80;4.20;;;;;;;6.76;84.11;101338.45;106443;1251;72644;-82
2023/12/08 09:20:45;;;;;;;6.10;3.70;;;;;;;6.81;83.70;101331.26;106439;1254;67535;-82
2023/12/08 09:23:18;;;;;;;8.90;4.70;;;;;;;6.70;84.09;101330.65;106333;1254;71455;-82
2023/12/08 09:25:53;;;;;;;9.20;4.20;;;;;;;6.70;84.06;101329.84;106472;1251;60533;-82
2023/12/08 09:28:27;;;;;;;9.70;4.00;;;;;;;6.66;85.21;101324.34;106525;1251;60472;-82
2023/12/08 09:31:01;;;;;;;8.10;4.40;;;;;;;6.68;85.50;101325.32;106579;1251;73809;-82
2023/12/08 09:33:34;;;;;;;8.50;4.00;;;;;;;6.71;85.41;101319.59;106418;1251;67686;-82
2023/12/08 09:36:09;;;;;;;9.90;4.30;;;;;;;6.76;85.58;101308.98;106242;1255;73580;-81
2023/12/08 09:38:43;;;;;;;8.80;4.10;;;;;;;6.80;84.97;101302.16;106431;1255;60396;-81
2023/12/08 09:41:18;;;;;;;6.30;3.60;;;;;;;6.89;83.95;101301.59;106476;1251;60468;-81
2023/12/08 09:43:56;;;;;;;8.20;4.30;;;;;;;6.91;84.17;101297.38;106411;1251;73895;-81
2023/12/08 09:46:31;;;;;;;6.50;3.70;;;;;;;6.88;84.87;101301.13;106456;1251;68412;-81
2023/12/08 09:49:05;;;;;;;7.70;3.40;;;;;;;6.95;84.02;101305.84;106354;1254;70219;-81
2023/12/08 09:51:39;;;;;;;6.70;4.00;;;;;;;6.88;84.08;101304.14;106224;1254;60496;-81
2023/12/08 09:54:22;;;;;;;9.10;4.40;;;;;;;6.78;85.75;101302.27;106793;1254;62396;-81
2023/12/08 09:56:58;;;;;;;8.50;4.40;;;;;;;6.80;86.53;101300.14;106375;1256;74277;-82
2023/12/08 09:59:32;;;;;;;7.50;4.10;;;;;;;6.80;86.86;101302.11;106419;1253;69174;-82
2023/12/08 10:02:08;;;;;;;8.50;4.00;;;;;;;6.82;87.25;101302.83;106238;1254;72861;-82
2023/12/08 10:04:42;;;;;;;8.40;4.20;;;;;;;6.84;86.93;101303.56;106273;1257;60521;-82
2023/12/08 10:07:18;;;;;;;7.80;4.20;;;;;;;6.79;87.13;101300.50;106389;1255;61304;-82
2023/12/08 10:09:51;;;;;;;7.10;4.20;;;;;;;6.85;86.27;101299.89;106538;1254;71570;-82
2023/12/08 10:12:25;;;;;;;6.80;4.20;;;;;;;6.78;86.34;101303.30;106335;1254;70580;-82
2023/12/08 10:15:05;;;;;;;6.70;4.00;;;;;;;6.72;85.70;101303.98;106428;1256;70437;-82
2023/12/08 10:17:49;;;;;;;7.50;3.70;;;;;;;6.67;85.25;101303.90;106260;1254;60839;-82
2023/12/08 10:20:24;;;;;;;6.40;3.80;;;;;;;6.73;84.45;101304.96;106700;1254;60540;-82
2023/12/08 10:23:02;;;;;;;6.40;3.70;;;;;;;6.76;84.02;101301.41;106426;1254;72644;-82
2023/12/08 10:25:36;;;;;;;6.20;3.80;;;;;;;6.80;83.82;101295.03;106336;1257;69148;-82
2023/12/08 10:28:10;;;;;;;7.30;3.70;;;;;;;6.86;83.29;101295.91;106235;1253;70811;-82
2023/12/08 10:30:46;;;;;;;6.50;3.70;;;;;;;6.86;82.65;101297.11;106347;1254;62330;-82
2023/12/08 10:33:25;;;;;;;6.70;3.40;;;;;;;6.92;81.69;101303.77;106091;1254;61026;-82
2023/12/08 10:35:59;;;;;;;6.60;3.50;;;;;;;6.92;80.99;101303.20;106349;1252;73799;-83
2023/12/08 10:38:27;;;;;;;5.90;3.50;;;;;;;6.94;79.92;101305.87;106407;1257;67204;-83
2023/12/08 10:41:08;;;;;;;6.30;3.70;;;;;;;6.85;80.13;101306.46;106284;1253;72630;-83
2023/12/08 10:43:43;;;;;;;8.60;4.00;;;;;;;6.84;80.14;101308.09;106178;1254;60840;-84
2023/12/08 10:46:11;;;;;;;6.20;3.00;;;;;;;6.89;79.81;101311.46;106488;1254;61085;-83
2023/12/08 10:48:45;;;;;;;7.80;3.50;;;;;;;6.81;79.48;101311.48;106459;1256;75830;-83
2023/12/08 10:51:19;;;;;;;7.60;4.10;;;;;;;6.79;79.65;101308.77;106476;1256;69550;-83
2023/12/08 10:53:53;;;;;;;6.30;3.30;;;;;;;6.76;79.73;101314.07;106307;1251;74623;-83
2023/12/08 10:56:27;;;;;;;7.30;3.90;;;;;;;6.76;79.61;101313.04;106481;1252;60431;-83
2023/12/08 10:59:08;;;;;;;6.70;3.30;;;;;;;6.79;79.73;101311.11;106683;1251;60536;-82
2023/12/08 11:01:41;;;;;;;7.20;3.40;;;;;;;6.78;79.77;101311.67;106440;1251;72580;-83
2023/12/08 11:04:21;;;;;;;7.30;3.80;;;;;;;6.82;79.41;101311.17;106387;1254;68280;-82
2023/12/08 11:07:15;;;;;;;7.30;3.90;;;;;;;6.77;79.52;101305.73;106673;1256;72488;-82
2023/12/08 11:09:50;;;;;;;6.10;3.00;;;;;;;6.72;79.83;101301.56;106465;1252;60491;-82
2023/12/08 11:12:30;;;;;;;5.60;3.30;;;;;;;6.68;79.65;101300.61;106546;1251;61212;-82
2023/12/08 11:15:16;;;;;;;6.60;3.50;;;;;;;6.73;80.85;101299.38;106289;1251;73826;-88
2023/12/08 11:17:57;;;;;;;4.80;3.30;;;;;;;6.79;81.03;101296.22;106670;1257;68449;-88
2023/12/08 11:20:37;;;;;;;6.60;3.80;;;;;;;6.87;80.41;101291.63;106396;1254;71514;-88
2023/12/08 11:23:11;;;;;;;7.40;3.40;;;;;;;7.00;79.29;101292.05;106323;1257;62093;-88
2023/12/08 11:25:56;;;;;;;6.40;3.40;;;;;;;7.05;77.66;101293.16;106618;1251;62535;-88
2023/12/08 11:28:42;;;;;;;6.60;3.80;;;;;;;7.09;76.35;101294.22;106954;1252;76251;-88
2023/12/08 11:31:45;;;;;;;7.10;3.80;;;;;;;7.04;74.59;101293.98;106304;1251;68697;-88
2023/12/08 11:34:29;;;;;;;6.00;3.00;;;;;;;6.98;75.45;101293.80;106405;1251;74972;-88
2023/12/08 11:37:09;;;;;;;6.80;4.00;;;;;;;7.04;76.06;101289.54;106584;1251;60392;-88
2023/12/08 11:39:49;;;;;;;4.30;2.90;;;;;;;7.01;75.81;101287.80;106826;1251;60336;-88
2023/12/08 11:42:23;;;;;;;5.80;3.50;;;;;;;7.01;75.89;101286.95;106451;1251;73026;-88
2023/12/08 11:45:03;;;;;;;9.40;5.20;;;;;;;7.11;74.68;101292.27;106428;1251;67419;-89
2023/12/08 11:47:43;;;;;;;8.30;3.50;;;;;;;7.11;73.88;101291.13;106415;1251;72677;-88
2023/12/08 11:50:17;;;;;;;7.00;3.90;;;;;;;7.08;74.14;101287.41;106432;1254;60360;-88
2023/12/08 11:52:51;;;;;;;7.50;3.80;;;;;;;7.02;74.39;101288.79;106405;1254;62194;-88
2023/12/08 11:55:25;;;;;;;6.80;4.10;;;;;;;6.94;74.71;101292.05;106491;1253;74101;-88
2023/12/08 11:58:01;;;;;;;;;;;;;;;6.72;76.10;101293.55;106893;1256;69602;-88
2023/12/08 12:00:45;;;;;;;8.10;3.90;;;;;;;6.52;77.76;101292.92;106528;1254;72645;-87
2023/12/08 12:03:26;;;;;;;6.90;3.80;;;;;;;6.51;78.21;101293.11;106417;1254;62327;-87
2023/12/08 12:06:01;;;;;;;7.80;4.50;;;;;;;6.59;77.48;101290.73;106278;1254;60857;-89
2023/12/08 12:08:37;;;;;;;5.90;3.60;;;;;;;6.61;77.63;101290.83;106487;1254;73822;-88
2023/12/08 12:11:11;;;;;;;8.80;4.20;;;;;;;6.69;77.30;101293.63;106518;1256;71103;-88
2023/12/08 12:13:41;;;;;;;7.50;4.20;;;;;;;6.66;77.34;101291.55;106332;1254;74777;-88
2023/12/08 12:16:15;;;;;;;7.80;4.40;;;;;;;6.61;77.81;101292.78;106362;1254;61021;-88
2023/12/08 12:18:49;;;;;;;7.90;4.00;;;;;;;6.65;76.70;101288.64;106584;1252;61864;-88
2023/12/08 12:21:23;;;;;;;8.10;4.30;;;;;;;6.65;76.49;101289.50;106606;1257;74425;-89
2023/12/08 12:23:57;;;;;;;7.00;4.00;;;;;;;6.65;76.57;101292.81;106403;1257;67477;-88
2023/12/08 12:26:30;;;;;;;7.10;3.70;;;;;;;6.55;77.05;101295.98;106251;1254;71111;-87
2023/12/08 12:28:59;;;;;;;8.30;4.00;;;;;;;6.57;76.83;101293.77;106309;1258;60404;-88
2023/12/08 12:31:37;;;;;;;8.70;4.60;;;;;;;6.59;76.82;101295.11;106940;1254;62156;-88
2023/12/08 12:34:17;;;;;;;11.20;5.40;;;;;;;6.61;76.59;101295.11;106395;1254;75962;-89
2023/12/08 12:36:58;;;;;;;8.00;4.50;;;;;;;6.63;76.54;101292.39;106588;1254;68557;-89
2023/12/08 12:39:38;;;;;;;6.60;3.70;;;;;;;6.38;78.35;101295.26;106452;1256;72684;-89
2023/12/08 12:42:18;;;;;;;7.50;4.50;;;;;;;6.18;79.99;101300.26;106568;1253;61253;-89
2023/12/08 12:44:58;;;;;;;8.00;4.00;;;;;;;6.11;80.23;101297.72;106381;1253;61681;-88
2023/12/08 12:47:39;;;;;;;6.80;4.70;;;;;;;6.00;80.91;101305.16;106517;1254;74750;-88
2023/12/08 12:50:20;;;;;;;6.60;3.70;;;;;;;5.95;81.69;101303.92;106680;1254;69255;-89
2023/12/08 12:53:08;;;;;;;8.30;4.30;;;;;;;5.90;82.20;101309.59;106553;1253;73540;-88
2023/12/08 12:55:49;;;;;;;9.70;4.30;;;;;;;5.89;82.88;101311.41;106317;1256;60306;-89
2023/12/08 12:58:29;;;;;;;8.00;4.30;;;;;;;5.94;82.50;101309.52;106200;1253;62157;-88
2023/12/08 13:01:27;;;;;;;6.60;3.90;;;;;;;5.87;82.97;101309.89;106338;1254;74157;-88
2023/12/08 13:04:08;;;;;;;7.30;4.20;;;;;;;5.87;83.33;101304.63;106261;1258;70114;-88
2023/12/08 13:06:48;;;;;;;9.20;4.80;;;;;;;6.02;82.04;101304.39;106256;1253;73757;-88
2023/12/08 13:09:34;;;;;;;9.30;4.40;;;;;;;6.00;82.30;101303.41;106338;1254;61914;-88
2023/12/08 13:12:14;;;;;;;11.10;5.60;;;;;;;6.23;80.46;101300.77;106523;1254;61121;-87
2023/12/08 13:14:54;;;;;;;9.90;5.10;;;;;;;6.30;79.47;101304.02;106332;1254;76252;-89
2023/12/08 13:17:34;;;;;;;7.70;4.60;;;;;;;6.39;78.37;101305.52;106243;1253;69695;-89
2023/12/08 13:20:15;;;;;;;10.70;5.60;;;;;;;6.37;78.08;101304.80;106208;1256;71841;-88
2023/12/08 13:22:55;;;;;;;9.80;4.90;;;;;;;6.47;77.23;101305.45;106482;1254;60466;-89
2023/12/08 13:25:35;;;;;;;8.00;4.90;;;;;;;6.43;77.38;101309.38;106164;1254;61981;-88
2023/12/08 13:28:15;;;;;;;8.40;4.50;;;;;;;6.40;77.39;101309.34;106482;1257;75839;-88
2023/12/08 13:30:55;;;;;;;8.00;5.00;;;;;;;6.30;77.88;101309.70;106743;1253;68741;-87
2023/12/08 13:33:35;;;;;;;8.90;4.50;;;;;;;6.25;78.55;101315.23;106319;1254;72812;-87
2023/12/08 13:36:08;;;;;;;10.10;5.20;;;;;;;6.23;78.66;101309.63;106189;1259;61082;-88
2023/12/08 13:38:42;;;;;;;11.60;6.20;;;;;;;6.40;77.38;101310.42;106351;1253;60903;-87
2023/12/08 13:41:15;;;;;;;9.50;4.80;;;;;;;6.43;76.56;101314.56;106795;1252;73845;-88
2023/12/08 13:43:48;;;;;;;9.00;5.40;;;;;;;6.44;76.56;101310.91;106508;1253;68400;-87
2023/12/08 13:46:22;;;;;;;9.90;5.80;;;;;;;6.50;75.84;101304.98;108392;1254;73046;-88
2023/12/08 13:48:56;;;;;;;10.60;5.00;;;;;;;6.50;75.65;101307.08;106241;1257;62053;-82
2023/12/08 13:51:31;;;;;;;9.90;5.20;;;;;;;6.50;75.43;101309.48;106385;1257;60013;-87
2023/12/08 13:54:13;;;;;;;8.50;4.80;;;;;;;6.44;75.86;101308.67;107048;1252;74500;-87
2023/12/08 13:56:41;;;;;;;9.50;4.50;;;;;;;6.46;75.42;101315.19;106264;1254;70497;-82
2023/12/08 13:59:08;;;;;;;10.20;5.30;;;;;;;6.41;75.82;101313.48;106345;1253;73271;-81
2023/12/08 14:01:36;;;;;;;11.70;4.80;;;;;;;6.39;75.91;101322.77;106290;1254;60456;-87
2023/12/08 14:04:10;;;;;;;8.40;4.70;;;;;;;6.35;76.04;101320.37;106357;1259;62824;-86
2023/12/08 14:06:42;;;;;;;10.70;5.40;;;;;;;6.40;75.84;101331.39;106528;1252;72564;-82
2023/12/08 14:09:16;;;;;;;;;;;;;;;6.43;75.65;101329.02;106398;1252;71195;-82
2023/12/08 14:11:51;;;;;;;10.20;5.40;;;;;;;6.47;75.29;101321.29;106573;1253;73568;-85
2023/12/08 14:14:25;;;;;;;9.30;5.50;;;;;;;6.32;76.38;101319.90;106624;1258;60758;-82
2023/12/08 14:16:59;;;;;;;8.30;5.10;;;;;;;6.40;75.83;101322.08;106643;1254;60493;-82
2023/12/08 14:19:33;;;;;;;8.30;4.60;;;;;;;6.35;76.21;101320.77;106697;1254;75174;-87
2023/12/08 14:22:07;;;;;;;10.30;5.10;;;;;;;6.37;76.12;101324.41;106537;1256;70524;-88
2023/12/08 14:24:41;;;;;;;10.50;5.70;;;;;;;6.39;75.90;101320.43;106418;1260;71375;-82
2023/12/08 14:27:15;;;;;;;11.70;5.80;;;;;;;6.39;75.71;101323.21;106207;1254;61734;-87
2023/12/08 14:29:49;;;;;;;8.20;5.00;;;;;;;6.33;76.11;101321.18;106280;1259;61117;-87
2023/12/08 14:32:23;;;;;;;9.40;5.40;;;;;;;6.21;76.83;101324.73;106342;1253;73323;-82
2023/12/08 14:34:56;;;;;;;9.90;5.50;;;;;;;6.20;77.09;101322.73;106370;1254;71100;-82
2023/12/08 14:37:40;;;;;;;10.80;4.90;;;;;;;6.25;77.09;101322.34;106415;1254;72708;-87
2023/12/08 14:40:14;;;;;;;7.40;4.50;;;;;;;6.24;77.18;101321.72;106366;1253;60492;-87
2023/12/08 14:42:48;;;;;;;10.50;4.90;;;;;;;6.27;76.98;101321.67;106421;1253;61093;-87
2023/12/08 14:45:22;;;;;;;8.40;5.00;;;;;;;6.25;76.97;101319.25;106191;1254;73839;-82
2023/12/08 14:47:56;;;;;;;9.40;5.60;;;;;;;6.23;77.10;101321.52;106336;1256;67321;-82
2023/12/08 14:50:30;;;;;;;8.80;5.30;;;;;;;6.25;77.59;101324.50;106671;1256;73989;-82
2023/12/08 14:53:04;;;;;;;7.80;4.70;;;;;;;6.34;76.69;101330.68;106339;1254;59635;-88
2023/12/08 14:55:38;;;;;;;9.00;4.80;;;;;;;6.40;76.40;101331.15;106295;1256;61634;-87
2023/12/08 14:58:12;;;;;;;10.40;5.30;;;;;;;6.51;75.55;101330.67;106305;1253;76387;-82
2023/12/08 15:00:46;;;;;;;10.60;5.20;;;;;;;6.53;75.68;101328.96;106897;1253;68539;-83
2023/12/08 15:03:20;;;;;;;9.80;5.10;;;;;;;6.60;75.40;101325.81;106295;1259;74592;-87
2023/12/08 15:05:54;;;;;;;8.30;4.70;;;;;;;6.50;75.75;101330.44;106411;1254;60643;-82
2023/12/08 15:08:28;;;;;;;12.40;5.90;;;;;;;6.56;75.50;101334.07;106257;1259;61256;-86
2023/12/08 15:11:02;;;;;;;9.40;4.80;;;;;;;6.53;75.28;101331.44;106407;1254;74438;-88
2023/12/08 15:13:36;;;;;;;7.80;4.70;;;;;;;6.62;74.71;101330.71;106275;1254;69956;-82
2023/12/08 15:16:10;;;;;;;12.90;6.60;;;;;;;6.56;74.62;101330.77;106456;1257;74690;-82
2023/12/08 15:18:44;;;;;;;10.50;5.70;;;;;;;6.35;75.71;101328.98;106387;1254;61081;-82
2023/12/08 15:21:21;;;;;;;9.60;5.40;;;;;;;6.31;76.27;101326.34;106274;1254;62274;-82
2023/12/08 15:23:55;;;;;;;10.60;5.50;;;;;;;6.23;76.90;101323.74;106995;1256;72537;-87
2023/12/08 15:26:31;;;;;;;10.20;5.10;;;;;;;6.18;76.84;101324.42;106221;1258;69573;-82
2023/12/08 15:29:05;;;;;;;10.20;5.70;;;;;;;6.26;76.13;101325.98;106213;1254;74194;-82
2023/12/08 15:31:39;;;;;;;11.90;5.60;;;;;;;6.36;75.96;101327.86;106189;1255;61435;-81
2023/12/08 15:34:14;;;;;;;10.20;5.30;;;;;;;6.37;75.52;101328.98;106310;1259;60353;-82
2023/12/08 15:36:52;;;;;;;11.50;5.50;;;;;;;6.39;75.38;101326.95;106155;1258;73862;-87
2023/12/08 15:39:26;;;;;;;10.80;5.80;;;;;;;6.31;75.77;101321.25;106414;1256;70098;-82
2023/12/08 15:42:00;;;;;;;11.90;6.50;;;;;;;6.31;76.09;101318.41;106323;1258;73653;-87
2023/12/08 15:44:34;;;;;;;9.20;5.20;;;;;;;6.32;76.12;101317.90;106698;1254;61422;-81
2023/12/08 15:47:08;;;;;;;9.60;5.20;;;;;;;6.37;75.24;101319.23;106379;1256;62419;-82
2023/12/08 15:49:42;;;;;;;12.50;6.60;;;;;;;6.33;75.22;101320.76;106366;1256;74707;-82
2023/12/08 15:52:19;;;;;;;11.00;5.70;;;;;;;6.38;74.93;101322.90;106520;1251;68689;-82
2023/12/08 15:54:53;;;;;;;9.10;4.90;;;;;;;6.45;74.28;101324.89;106649;1251;74789;-87
2023/12/08 15:57:21;;;;;;;10.00;5.00;;;;;;;6.30;75.37;101325.23;106434;1251;63227;-87
2023/12/08 15:59:54;;;;;;;9.70;5.10;;;;;;;6.32;75.03;101327.25;106484;1251;61187;-82